Las Vegas, Nevada
Traffic Map
Current Weather Conditions
Las Vegas, Nevada
Overcast
Overcast
13°
Feels Like: 13°
Wind Chill: 13° Ceiling: 5500
Heat Index: 13° Visibility: 10mi
Dew Point: Wind: 5mph
Humidity: 42% Direction: 100° (E)
Pressure: 29.93in Gusts: 0mph
Raw Report DataKLAS 012056Z 10004KT 10SM BKN055 OVC070 13/01 A2993 RMK AO2 SLP128 T01330006 58011
Traffic Incident Summary
Active as of:
Severity:
Category:
InformationThere was an issue retrieving the traffic information for this location. Please try a different location or try again shortly.
Advertisements
Track Severe Weather on mobile